Ree Heights, South Dakota
Current Conditions -  °F | °C
As of 1:55 PM on Thursday 20 Nov 2014 (Local Time) from KHON Reporting Station
Clear Clear  
Wind Chill: 12°   Ceiling: Unl
Heat Index: 19°   Visibility: 10mi
Dew Point:   Wind: 5mph
Humidity: 65%   Direction: 50°NE
Pressure: 30.17"   Gusts: NA
Location:  44.52°N, 99.2°W
Report Text: KHON 201955Z AUTO 05004KT 10SM CLR M07/M13 A3017 RMK AO2 SLP244 T10721128
Loading
Personal Weather Stations






























Interactive Weather Map New forecast layout! Learn more

10-Day Weather Forecast

Advertisements
Track Severe Weather on mobile